sensor_id;sensor_type;location;lat;lon;timestamp;pressure;altitude;pressure_sealevel;temperature;humidity
77212;BME280;66206;0.000;0.000;2023-04-08T00:01:49;98024.77;;;22.77;23.54
77212;BME280;66206;0.000;0.000;2023-04-08T00:04:16;98021.92;;;22.64;23.55
77212;BME280;66206;0.000;0.000;2023-04-08T00:06:43;98023.28;;;22.69;23.59
77212;BME280;66206;0.000;0.000;2023-04-08T00:09:09;98021.71;;;22.79;23.56
77212;BME280;66206;0.000;0.000;2023-04-08T00:11:36;98021.04;;;22.74;23.59
77212;BME280;66206;0.000;0.000;2023-04-08T00:14:03;98023.12;;;22.53;23.69
77212;BME280;66206;0.000;0.000;2023-04-08T00:16:30;98019.86;;;22.75;23.59
77212;BME280;66206;0.000;0.000;2023-04-08T00:18:57;98018.99;;;22.65;23.63
77212;BME280;66206;0.000;0.000;2023-04-08T00:21:23;98020.06;;;22.68;23.60
77212;BME280;66206;0.000;0.000;2023-04-08T00:23:50;98021.28;;;22.49;23.68
77212;BME280;66206;0.000;0.000;2023-04-08T00:26:17;98020.36;;;22.59;23.52
77212;BME280;66206;0.000;0.000;2023-04-08T00:28:44;98021.42;;;22.53;23.66
77212;BME280;66206;0.000;0.000;2023-04-08T00:31:10;98024.07;;;22.46;23.67
77212;BME280;66206;0.000;0.000;2023-04-08T00:33:37;98020.80;;;22.35;23.73
77212;BME280;66206;0.000;0.000;2023-04-08T00:36:04;98023.66;;;22.47;23.73
77212;BME280;66206;0.000;0.000;2023-04-08T00:38:31;98023.49;;;22.30;23.66
77212;BME280;66206;0.000;0.000;2023-04-08T00:40:57;98022.57;;;22.57;23.64
77212;BME280;66206;0.000;0.000;2023-04-08T00:43:24;98024.00;;;22.50;23.67
77212;BME280;66206;0.000;0.000;2023-04-08T00:45:51;98023.17;;;22.29;23.74
77212;BME280;66206;0.000;0.000;2023-04-08T00:48:18;98022.75;;;22.51;23.60
77212;BME280;66206;0.000;0.000;2023-04-08T00:50:44;98024.35;;;22.54;23.61
77212;BME280;66206;0.000;0.000;2023-04-08T00:53:11;98024.80;;;22.35;23.65
77212;BME280;66206;0.000;0.000;2023-04-08T00:55:38;98026.34;;;22.22;23.79
77212;BME280;66206;0.000;0.000;2023-04-08T00:58:05;98026.48;;;22.41;23.65
77212;BME280;66206;0.000;0.000;2023-04-08T01:00:32;98027.21;;;22.55;23.54
77212;BME280;66206;0.000;0.000;2023-04-08T01:03:03;98030.73;;;22.33;23.48
77212;BME280;66206;0.000;0.000;2023-04-08T01:05:27;98034.53;;;22.16;23.68
77212;BME280;66206;0.000;0.000;2023-04-08T01:07:56;98038.74;;;22.29;23.59
77212;BME280;66206;0.000;0.000;2023-04-08T01:10:25;98038.28;;;22.36;23.56
77212;BME280;66206;0.000;0.000;2023-04-08T01:12:55;98038.55;;;22.33;23.59
77212;BME280;66206;0.000;0.000;2023-04-08T01:15:22;98040.15;;;22.20;23.69
77212;BME280;66206;0.000;0.000;2023-04-08T01:17:51;98041.30;;;22.28;23.60
77212;BME280;66206;0.000;0.000;2023-04-08T01:20:18;98041.70;;;22.31;23.58
77212;BME280;66206;0.000;0.000;2023-04-08T01:22:50;98042.46;;;22.21;23.58
77212;BME280;66206;0.000;0.000;2023-04-08T01:25:16;98043.32;;;22.23;23.59
77212;BME280;66206;0.000;0.000;2023-04-08T01:27:44;98045.96;;;22.42;23.45
77212;BME280;66206;0.000;0.000;2023-04-08T01:30:13;98042.96;;;22.18;23.51
77212;BME280;66206;0.000;0.000;2023-04-08T01:32:40;98044.33;;;22.28;23.50
77212;BME280;66206;0.000;0.000;2023-04-08T01:35:08;98042.16;;;22.01;23.67
77212;BME280;66206;0.000;0.000;2023-04-08T01:37:36;98039.19;;;22.08;23.61
77212;BME280;66206;0.000;0.000;2023-04-08T01:40:04;98040.49;;;22.12;23.59
77212;BME280;66206;0.000;0.000;2023-04-08T01:42:33;98042.74;;;22.27;23.49
77212;BME280;66206;0.000;0.000;2023-04-08T01:45:00;98041.47;;;22.02;23.62
77212;BME280;66206;0.000;0.000;2023-04-08T01:47:29;98041.05;;;22.07;23.61
77212;BME280;66206;0.000;0.000;2023-04-08T01:49:56;98035.55;;;21.93;23.55
77212;BME280;66206;0.000;0.000;2023-04-08T01:52:24;98035.47;;;22.07;23.59
77212;BME280;66206;0.000;0.000;2023-04-08T01:54:52;98036.55;;;22.12;23.52
77212;BME280;66206;0.000;0.000;2023-04-08T01:57:23;98032.32;;;22.10;23.56
77212;BME280;66206;0.000;0.000;2023-04-08T01:59:46;98034.83;;;21.98;23.63
77212;BME280;66206;0.000;0.000;2023-04-08T02:02:13;98036.32;;;22.03;23.64
77212;BME280;66206;0.000;0.000;2023-04-08T02:04:41;98037.33;;;22.01;23.63
77212;BME280;66206;0.000;0.000;2023-04-08T02:07:07;98039.05;;;22.05;23.51
77212;BME280;66206;0.000;0.000;2023-04-08T02:09:34;98038.77;;;21.98;23.64
77212;BME280;66206;0.000;0.000;2023-04-08T02:12:01;98042.63;;;21.95;23.60
77212;BME280;66206;0.000;0.000;2023-04-08T02:14:28;98042.42;;;22.08;23.47
77212;BME280;66206;0.000;0.000;2023-04-08T02:16:57;98042.88;;;21.98;23.58
77212;BME280;66206;0.000;0.000;2023-04-08T02:19:23;98047.50;;;21.97;23.61
77212;BME280;66206;0.000;0.000;2023-04-08T02:21:52;98048.99;;;22.07;23.58
77212;BME280;66206;0.000;0.000;2023-04-08T02:24:20;98050.30;;;21.90;23.67
77212;BME280;66206;0.000;0.000;2023-04-08T02:26:47;98046.96;;;22.04;23.56
77212;BME280;66206;0.000;0.000;2023-04-08T02:29:15;98049.07;;;21.96;23.50
77212;BME280;66206;0.000;0.000;2023-04-08T02:31:42;98048.20;;;21.87;23.62
77212;BME280;66206;0.000;0.000;2023-04-08T02:34:10;98046.60;;;22.13;23.46
77212;BME280;66206;0.000;0.000;2023-04-08T02:36:37;98050.45;;;22.02;23.56
77212;BME280;66206;0.000;0.000;2023-04-08T02:39:04;98056.89;;;21.82;23.71
77212;BME280;66206;0.000;0.000;2023-04-08T02:41:30;98057.26;;;22.00;23.58
77212;BME280;66206;0.000;0.000;2023-04-08T02:43:57;98056.31;;;22.03;23.54
77212;BME280;66206;0.000;0.000;2023-04-08T02:46:24;98060.88;;;21.91;23.55
77212;BME280;66206;0.000;0.000;2023-04-08T02:48:51;98059.15;;;22.00;23.49
77212;BME280;66206;0.000;0.000;2023-04-08T02:51:17;98058.50;;;21.92;23.54
77212;BME280;66206;0.000;0.000;2023-04-08T02:53:44;98060.43;;;21.93;23.56
77212;BME280;66206;0.000;0.000;2023-04-08T02:56:11;98061.28;;;21.91;23.57
77212;BME280;66206;0.000;0.000;2023-04-08T02:58:38;98060.60;;;21.80;23.65
77212;BME280;66206;0.000;0.000;2023-04-08T03:01:06;98060.70;;;21.97;23.51
77212;BME280;66206;0.000;0.000;2023-04-08T03:03:33;98065.63;;;21.84;23.62
77212;BME280;66206;0.000;0.000;2023-04-08T03:05:59;98065.39;;;21.89;23.60
77212;BME280;66206;0.000;0.000;2023-04-08T03:08:26;98067.74;;;21.93;23.59
77212;BME280;66206;0.000;0.000;2023-04-08T03:10:53;98067.44;;;21.87;23.61
77212;BME280;66206;0.000;0.000;2023-04-08T03:13:20;98063.96;;;22.01;23.39
77212;BME280;66206;0.000;0.000;2023-04-08T03:15:46;98068.71;;;22.04;23.51
77212;BME280;66206;0.000;0.000;2023-04-08T03:18:13;98069.23;;;22.00;23.48
77212;BME280;66206;0.000;0.000;2023-04-08T03:20:40;98069.70;;;21.98;23.53
77212;BME280;66206;0.000;0.000;2023-04-08T03:23:07;98072.94;;;21.97;23.49
77212;BME280;66206;0.000;0.000;2023-04-08T03:25:33;98074.05;;;21.99;23.46
77212;BME280;66206;0.000;0.000;2023-04-08T03:28:00;98075.44;;;22.05;23.38
77212;BME280;66206;0.000;0.000;2023-04-08T03:30:27;98077.46;;;22.05;23.35
77212;BME280;66206;0.000;0.000;2023-04-08T03:32:54;98074.14;;;22.12;23.33
77212;BME280;66206;0.000;0.000;2023-04-08T03:35:20;98072.88;;;22.02;23.32
77212;BME280;66206;0.000;0.000;2023-04-08T03:37:47;98074.35;;;22.08;23.32
77212;BME280;66206;0.000;0.000;2023-04-08T03:40:14;98073.73;;;22.16;23.31
77212;BME280;66206;0.000;0.000;2023-04-08T03:42:41;98076.87;;;22.19;23.28
77212;BME280;66206;0.000;0.000;2023-04-08T03:45:08;98076.23;;;22.05;23.35
77212;BME280;66206;0.000;0.000;2023-04-08T03:47:34;98075.36;;;22.13;23.36
77212;BME280;66206;0.000;0.000;2023-04-08T03:50:01;98076.46;;;22.04;23.37
77212;BME280;66206;0.000;0.000;2023-04-08T03:52:28;98074.32;;;22.11;23.37
77212;BME280;66206;0.000;0.000;2023-04-08T03:54:55;98075.89;;;22.14;23.34
77212;BME280;66206;0.000;0.000;2023-04-08T03:57:22;98076.93;;;22.13;23.34
77212;BME280;66206;0.000;0.000;2023-04-08T03:59:48;98079.78;;;22.08;23.40
77212;BME280;66206;0.000;0.000;2023-04-08T04:02:15;98081.79;;;22.09;23.38
77212;BME280;66206;0.000;0.000;2023-04-08T04:04:42;98085.71;;;22.11;23.35
77212;BME280;66206;0.000;0.000;2023-04-08T04:07:09;98084.81;;;22.06;23.37
77212;BME280;66206;0.000;0.000;2023-04-08T04:09:35;98085.99;;;22.10;23.41
77212;BME280;66206;0.000;0.000;2023-04-08T04:12:02;98087.80;;;22.01;23.45
77212;BME280;66206;0.000;0.000;2023-04-08T04:14:29;98087.42;;;22.01;23.40
77212;BME280;66206;0.000;0.000;2023-04-08T04:16:55;98088.28;;;21.95;23.43
77212;BME280;66206;0.000;0.000;2023-04-08T04:19:22;98085.25;;;22.06;23.40
77212;BME280;66206;0.000;0.000;2023-04-08T04:21:49;98087.26;;;21.99;23.43
77212;BME280;66206;0.000;0.000;2023-04-08T04:24:16;98089.42;;;22.12;23.43
77212;BME280;66206;0.000;0.000;2023-04-08T04:26:43;98091.55;;;21.99;23.45
77212;BME280;66206;0.000;0.000;2023-04-08T04:29:09;98094.29;;;21.84;23.56
77212;BME280;66206;0.000;0.000;2023-04-08T04:31:36;98095.88;;;21.91;23.51
77212;BME280;66206;0.000;0.000;2023-04-08T04:34:03;98098.48;;;21.94;23.55
77212;BME280;66206;0.000;0.000;2023-04-08T04:36:29;98100.42;;;21.97;23.53
77212;BME280;66206;0.000;0.000;2023-04-08T04:38:56;98103.69;;;22.07;23.45
77212;BME280;66206;0.000;0.000;2023-04-08T04:41:23;98106.90;;;21.97;23.53
77212;BME280;66206;0.000;0.000;2023-04-08T04:43:50;98106.02;;;22.13;23.50
77212;BME280;66206;0.000;0.000;2023-04-08T04:46:16;98107.31;;;21.97;23.47
77212;BME280;66206;0.000;0.000;2023-04-08T04:48:43;98110.09;;;21.98;23.48
77212;BME280;66206;0.000;0.000;2023-04-08T04:51:10;98112.81;;;22.07;23.45
77212;BME280;66206;0.000;0.000;2023-04-08T04:53:37;98111.59;;;21.93;23.54
77212;BME280;66206;0.000;0.000;2023-04-08T04:56:03;98111.96;;;21.97;23.49
77212;BME280;66206;0.000;0.000;2023-04-08T04:58:30;98115.75;;;21.95;23.51
77212;BME280;66206;0.000;0.000;2023-04-08T05:00:57;98116.71;;;21.91;23.55
77212;BME280;66206;0.000;0.000;2023-04-08T05:03:24;98119.69;;;21.94;23.62
77212;BME280;66206;0.000;0.000;2023-04-08T05:05:50;98122.60;;;21.95;23.53
77212;BME280;66206;0.000;0.000;2023-04-08T05:08:17;98123.13;;;21.95;23.51
77212;BME280;66206;0.000;0.000;2023-04-08T05:10:44;98126.30;;;22.03;23.58
77212;BME280;66206;0.000;0.000;2023-04-08T05:13:11;98125.99;;;21.94;23.54
77212;BME280;66206;0.000;0.000;2023-04-08T05:15:37;98125.17;;;21.97;23.58
77212;BME280;66206;0.000;0.000;2023-04-08T05:18:04;98127.56;;;21.84;23.66
77212;BME280;66206;0.000;0.000;2023-04-08T05:20:31;98129.98;;;22.00;23.60
77212;BME280;66206;0.000;0.000;2023-04-08T05:22:58;98132.48;;;21.91;23.66
77212;BME280;66206;0.000;0.000;2023-04-08T05:25:24;98133.66;;;21.85;23.65
77212;BME280;66206;0.000;0.000;2023-04-08T05:27:51;98134.37;;;21.85;23.58
77212;BME280;66206;0.000;0.000;2023-04-08T05:30:18;98140.33;;;21.94;23.60
77212;BME280;66206;0.000;0.000;2023-04-08T05:32:45;98144.39;;;21.87;23.59
77212;BME280;66206;0.000;0.000;2023-04-08T05:35:11;98145.81;;;21.83;23.66
77212;BME280;66206;0.000;0.000;2023-04-08T05:37:38;98144.64;;;21.81;23.67
77212;BME280;66206;0.000;0.000;2023-04-08T05:40:05;98148.32;;;21.89;23.60
77212;BME280;66206;0.000;0.000;2023-04-08T05:42:32;98148.80;;;21.87;23.64
77212;BME280;66206;0.000;0.000;2023-04-08T05:44:59;98150.24;;;21.82;23.72
77212;BME280;66206;0.000;0.000;2023-04-08T05:47:26;98151.68;;;21.97;23.66
77212;BME280;66206;0.000;0.000;2023-04-08T05:49:52;98154.57;;;21.90;23.63
77212;BME280;66206;0.000;0.000;2023-04-08T05:52:19;98158.76;;;21.89;23.67
77212;BME280;66206;0.000;0.000;2023-04-08T05:54:46;98158.27;;;21.96;23.69
77212;BME280;66206;0.000;0.000;2023-04-08T05:57:13;98160.53;;;21.94;23.64
77212;BME280;66206;0.000;0.000;2023-04-08T05:59:40;98161.67;;;21.81;23.66
77212;BME280;66206;0.000;0.000;2023-04-08T06:02:06;98163.06;;;21.88;23.65
77212;BME280;66206;0.000;0.000;2023-04-08T06:04:33;98165.09;;;22.04;23.60
77212;BME280;66206;0.000;0.000;2023-04-08T06:07:00;98166.69;;;21.97;23.61
77212;BME280;66206;0.000;0.000;2023-04-08T06:09:27;98170.05;;;21.95;23.65
77212;BME280;66206;0.000;0.000;2023-04-08T06:11:54;98174.06;;;21.92;23.67
77212;BME280;66206;0.000;0.000;2023-04-08T06:14:20;98174.85;;;21.88;23.67
77212;BME280;66206;0.000;0.000;2023-04-08T06:16:47;98174.66;;;21.79;23.72
77212;BME280;66206;0.000;0.000;2023-04-08T06:19:14;98176.25;;;21.90;23.67
77212;BME280;66206;0.000;0.000;2023-04-08T06:21:41;98181.25;;;21.80;23.67
77212;BME280;66206;0.000;0.000;2023-04-08T06:24:07;98179.18;;;21.88;23.65
77212;BME280;66206;0.000;0.000;2023-04-08T06:26:34;98181.13;;;21.81;23.69
77212;BME280;66206;0.000;0.000;2023-04-08T06:29:01;98182.07;;;21.96;23.70
77212;BME280;66206;0.000;0.000;2023-04-08T06:31:28;98184.43;;;21.88;23.69
77212;BME280;66206;0.000;0.000;2023-04-08T06:33:54;98185.05;;;21.74;23.74
77212;BME280;66206;0.000;0.000;2023-04-08T06:36:21;98188.74;;;21.93;23.70
77212;BME280;66206;0.000;0.000;2023-04-08T06:38:48;98189.92;;;21.82;23.81
77212;BME280;66206;0.000;0.000;2023-04-08T06:41:15;98194.63;;;21.86;23.85
77212;BME280;66206;0.000;0.000;2023-04-08T06:43:41;98199.82;;;21.83;23.76
77212;BME280;66206;0.000;0.000;2023-04-08T06:46:08;98206.45;;;21.76;23.78
77212;BME280;66206;0.000;0.000;2023-04-08T06:48:35;98204.86;;;21.77;23.80
77212;BME280;66206;0.000;0.000;2023-04-08T06:51:02;98204.36;;;21.90;23.69
77212;BME280;66206;0.000;0.000;2023-04-08T06:53:28;98202.74;;;21.81;23.87
77212;BME280;66206;0.000;0.000;2023-04-08T06:55:55;98204.03;;;22.06;23.76
77212;BME280;66206;0.000;0.000;2023-04-08T06:58:22;98204.79;;;21.79;23.79
77212;BME280;66206;0.000;0.000;2023-04-08T07:00:49;98208.15;;;21.94;24.00
77212;BME280;66206;0.000;0.000;2023-04-08T07:03:15;98213.27;;;22.13;23.96
77212;BME280;66206;0.000;0.000;2023-04-08T07:05:42;98217.63;;;21.82;24.24
77212;BME280;66206;0.000;0.000;2023-04-08T07:08:09;98218.56;;;21.85;24.25
77212;BME280;66206;0.000;0.000;2023-04-08T07:10:36;98226.06;;;21.90;24.40
77212;BME280;66206;0.000;0.000;2023-04-08T07:13:02;98225.90;;;21.88;24.42
77212;BME280;66206;0.000;0.000;2023-04-08T07:15:29;98219.46;;;21.78;24.39
77212;BME280;66206;0.000;0.000;2023-04-08T07:17:56;98226.06;;;21.89;24.42
77212;BME280;66206;0.000;0.000;2023-04-08T07:20:23;98232.31;;;21.79;24.48
77212;BME280;66206;0.000;0.000;2023-04-08T07:22:50;98234.99;;;21.79;24.66
77212;BME280;66206;0.000;0.000;2023-04-08T07:25:16;98240.42;;;21.83;24.55
77212;BME280;66206;0.000;0.000;2023-04-08T07:27:43;98241.40;;;21.92;24.71
77212;BME280;66206;0.000;0.000;2023-04-08T07:30:10;98246.64;;;21.85;24.68
77212;BME280;66206;0.000;0.000;2023-04-08T07:32:37;98246.92;;;21.86;24.66
77212;BME280;66206;0.000;0.000;2023-04-08T07:35:04;98246.51;;;21.73;24.86
77212;BME280;66206;0.000;0.000;2023-04-08T07:37:31;98249.48;;;21.78;24.75
77212;BME280;66206;0.000;0.000;2023-04-08T07:39:58;98248.98;;;21.76;24.93
77212;BME280;66206;0.000;0.000;2023-04-08T07:42:24;98252.28;;;21.77;24.88
77212;BME280;66206;0.000;0.000;2023-04-08T07:44:51;98256.02;;;22.09;24.70
77212;BME280;66206;0.000;0.000;2023-04-08T07:47:18;98253.72;;;21.93;24.81
77212;BME280;66206;0.000;0.000;2023-04-08T07:49:45;98256.21;;;21.84;25.03
77212;BME280;66206;0.000;0.000;2023-04-08T07:52:12;98262.00;;;21.73;25.10
77212;BME280;66206;0.000;0.000;2023-04-08T07:54:38;98262.65;;;21.96;24.89
77212;BME280;66206;0.000;0.000;2023-04-08T07:57:05;98264.57;;;21.82;25.10
77212;BME280;66206;0.000;0.000;2023-04-08T07:59:32;98266.17;;;22.01;24.84
77212;BME280;66206;0.000;0.000;2023-04-08T08:01:59;98264.63;;;21.83;25.14
77212;BME280;66206;0.000;0.000;2023-04-08T08:04:25;98267.24;;;21.90;24.88
77212;BME280;66206;0.000;0.000;2023-04-08T08:06:52;98268.37;;;21.83;24.88
77212;BME280;66206;0.000;0.000;2023-04-08T08:09:19;98272.53;;;21.87;25.06
77212;BME280;66206;0.000;0.000;2023-04-08T08:11:46;98271.68;;;22.01;24.91
77212;BME280;66206;0.000;0.000;2023-04-08T08:14:13;98274.76;;;22.02;24.97
77212;BME280;66206;0.000;0.000;2023-04-08T08:16:40;98279.58;;;22.06;25.01
77212;BME280;66206;0.000;0.000;2023-04-08T08:19:07;98274.96;;;22.11;25.03
77212;BME280;66206;0.000;0.000;2023-04-08T08:21:35;98280.19;;;21.83;25.25
77212;BME280;66206;0.000;0.000;2023-04-08T08:24:02;98280.02;;;21.71;25.67
77212;BME280;66206;0.000;0.000;2023-04-08T08:26:28;98281.06;;;20.57;27.02
77212;BME280;66206;0.000;0.000;2023-04-08T08:28:55;98281.69;;;21.28;26.34
77212;BME280;66206;0.000;0.000;2023-04-08T08:31:22;98286.04;;;21.91;25.66
77212;BME280;66206;0.000;0.000;2023-04-08T08:33:49;98288.42;;;22.35;25.21
77212;BME280;66206;0.000;0.000;2023-04-08T08:36:16;98291.94;;;22.46;25.30
77212;BME280;66206;0.000;0.000;2023-04-08T08:38:42;98296.63;;;22.70;25.06
77212;BME280;66206;0.000;0.000;2023-04-08T08:41:09;98295.12;;;22.90;24.90
77212;BME280;66206;0.000;0.000;2023-04-08T08:43:36;98297.53;;;22.77;25.57
77212;BME280;66206;0.000;0.000;2023-04-08T08:46:04;98295.56;;;22.40;25.66
77212;BME280;66206;0.000;0.000;2023-04-08T08:48:32;98295.14;;;22.73;25.64
77212;BME280;66206;0.000;0.000;2023-04-08T08:50:59;98299.37;;;22.46;25.69
77212;BME280;66206;0.000;0.000;2023-04-08T08:53:28;98295.82;;;22.56;25.86
77212;BME280;66206;0.000;0.000;2023-04-08T08:55:55;98299.92;;;22.53;25.92
77212;BME280;66206;0.000;0.000;2023-04-08T08:58:24;98302.93;;;22.45;25.91
77212;BME280;66206;0.000;0.000;2023-04-08T09:00:51;98305.71;;;22.28;25.99
77212;BME280;66206;0.000;0.000;2023-04-08T09:03:19;98309.32;;;22.30;25.95
77212;BME280;66206;0.000;0.000;2023-04-08T09:05:47;98312.67;;;22.26;26.00
77212;BME280;66206;0.000;0.000;2023-04-08T09:08:31;98312.39;;;22.24;25.97
77212;BME280;66206;0.000;0.000;2023-04-08T09:10:42;98310.52;;;22.12;26.13
77212;BME280;66206;0.000;0.000;2023-04-08T09:13:09;98312.14;;;22.02;26.13
77212;BME280;66206;0.000;0.000;2023-04-08T09:15:36;98311.47;;;22.16;26.03
77212;BME280;66206;0.000;0.000;2023-04-08T09:18:10;98309.14;;;21.94;26.25
77212;BME280;66206;0.000;0.000;2023-04-08T09:20:31;98311.08;;;21.98;26.15
77212;BME280;66206;0.000;0.000;2023-04-08T09:22:58;98314.31;;;21.70;26.40
77212;BME280;66206;0.000;0.000;2023-04-08T09:25:25;98317.99;;;21.98;26.18
77212;BME280;66206;0.000;0.000;2023-04-08T09:27:52;98316.49;;;21.94;26.30
77212;BME280;66206;0.000;0.000;2023-04-08T09:30:20;98318.19;;;21.90;26.17
77212;BME280;66206;0.000;0.000;2023-04-08T09:32:47;98324.19;;;21.83;26.29
77212;BME280;66206;0.000;0.000;2023-04-08T09:35:14;98321.51;;;21.85;26.19
77212;BME280;66206;0.000;0.000;2023-04-08T09:37:41;98322.24;;;21.95;26.07
77212;BME280;66206;0.000;0.000;2023-04-08T09:40:08;98327.02;;;21.78;26.28
77212;BME280;66206;0.000;0.000;2023-04-08T09:42:35;98327.82;;;21.80;26.25
77212;BME280;66206;0.000;0.000;2023-04-08T09:45:05;98322.57;;;21.69;26.26
77212;BME280;66206;0.000;0.000;2023-04-08T09:47:32;98326.39;;;21.95;26.17
77212;BME280;66206;0.000;0.000;2023-04-08T09:50:00;98327.31;;;21.69;26.25
77212;BME280;66206;0.000;0.000;2023-04-08T09:52:23;98327.11;;;21.85;26.25
77212;BME280;66206;0.000;0.000;2023-04-08T09:54:51;98326.49;;;21.76;26.30
77212;BME280;66206;0.000;0.000;2023-04-08T09:57:20;98325.01;;;21.92;26.23
77212;BME280;66206;0.000;0.000;2023-04-08T09:59:48;98325.65;;;21.76;26.27
77212;BME280;66206;0.000;0.000;2023-04-08T10:02:19;98324.32;;;21.67;26.27
77212;BME280;66206;0.000;0.000;2023-04-08T10:04:44;98325.74;;;21.66;26.36
77212;BME280;66206;0.000;0.000;2023-04-08T10:07:13;98327.38;;;21.53;26.35
77212;BME280;66206;0.000;0.000;2023-04-08T10:09:40;98327.23;;;21.66;26.26
77212;BME280;66206;0.000;0.000;2023-04-08T10:12:07;98328.04;;;21.89;26.11
77212;BME280;66206;0.000;0.000;2023-04-08T10:14:34;98331.20;;;20.91;27.24
77212;BME280;66206;0.000;0.000;2023-04-08T10:17:24;98329.87;;;21.09;27.11
77212;BME280;66206;0.000;0.000;2023-04-08T10:19:36;98328.57;;;21.69;27.10
77212;BME280;66206;0.000;0.000;2023-04-08T10:21:58;98329.15;;;22.13;26.61
77212;BME280;66206;0.000;0.000;2023-04-08T10:24:24;98326.14;;;22.11;26.59
77212;BME280;66206;0.000;0.000;2023-04-08T10:26:51;98329.40;;;22.41;26.37
77212;BME280;66206;0.000;0.000;2023-04-08T10:29:33;98328.62;;;22.54;26.24
77212;BME280;66206;0.000;0.000;2023-04-08T10:31:44;98324.54;;;22.84;26.12
77212;BME280;66206;0.000;0.000;2023-04-08T10:34:14;98323.09;;;22.50;26.38
77212;BME280;66206;0.000;0.000;2023-04-08T10:36:41;98320.56;;;22.73;26.12
77212;BME280;66206;0.000;0.000;2023-04-08T10:39:08;98326.48;;;22.94;25.81
77212;BME280;66206;0.000;0.000;2023-04-08T10:41:37;98324.76;;;22.82;25.95
77212;BME280;66206;0.000;0.000;2023-04-08T10:44:02;98324.04;;;23.07;25.61
77212;BME280;66206;0.000;0.000;2023-04-08T10:46:36;98324.52;;;22.91;25.84
77212;BME280;66206;0.000;0.000;2023-04-08T10:48:58;98323.82;;;22.79;25.77
77212;BME280;66206;0.000;0.000;2023-04-08T10:51:25;98327.61;;;23.10;25.61
77212;BME280;66206;0.000;0.000;2023-04-08T10:53:50;98325.17;;;23.12;25.41
77212;BME280;66206;0.000;0.000;2023-04-08T10:56:17;98325.22;;;22.95;25.79
77212;BME280;66206;0.000;0.000;2023-04-08T10:58:48;98321.43;;;23.06;25.53
77212;BME280;66206;0.000;0.000;2023-04-08T11:01:10;98320.48;;;23.14;25.39
77212;BME280;66206;0.000;0.000;2023-04-08T11:03:36;98317.41;;;23.19;25.33
77212;BME280;66206;0.000;0.000;2023-04-08T11:06:03;98316.65;;;23.28;25.24
77212;BME280;66206;0.000;0.000;2023-04-08T11:08:30;98317.59;;;22.94;25.50
77212;BME280;66206;0.000;0.000;2023-04-08T11:10:58;98324.86;;;22.68;25.96
77212;BME280;66206;0.000;0.000;2023-04-08T11:13:24;98321.95;;;22.44;26.20
77212;BME280;66206;0.000;0.000;2023-04-08T11:15:51;98319.27;;;22.46;26.27
77212;BME280;66206;0.000;0.000;2023-04-08T11:18:18;98323.64;;;22.42;26.42
77212;BME280;66206;0.000;0.000;2023-04-08T11:20:47;98328.60;;;22.42;26.39
77212;BME280;66206;0.000;0.000;2023-04-08T11:23:16;98324.52;;;22.29;26.51
77212;BME280;66206;0.000;0.000;2023-04-08T11:25:43;98322.45;;;22.27;26.71
77212;BME280;66206;0.000;0.000;2023-04-08T11:28:10;98319.19;;;22.36;26.86
77212;BME280;66206;0.000;0.000;2023-04-08T11:30:37;98321.25;;;22.05;27.06
77212;BME280;66206;0.000;0.000;2023-04-08T11:33:04;98323.96;;;21.60;27.68
77212;BME280;66206;0.000;0.000;2023-04-08T11:35:31;98325.39;;;22.47;26.88
77212;BME280;66206;0.000;0.000;2023-04-08T11:37:58;98322.39;;;22.66;26.52
77212;BME280;66206;0.000;0.000;2023-04-08T11:40:25;98322.74;;;23.04;26.17
77212;BME280;66206;0.000;0.000;2023-04-08T11:42:52;98317.67;;;23.27;25.96
77212;BME280;66206;0.000;0.000;2023-04-08T11:45:19;98318.84;;;22.54;26.51
77212;BME280;66206;0.000;0.000;2023-04-08T11:47:46;98318.62;;;23.11;25.92
77212;BME280;66206;0.000;0.000;2023-04-08T11:50:21;98321.27;;;23.30;25.68
77212;BME280;66206;0.000;0.000;2023-04-08T11:52:44;98320.67;;;23.58;25.46
77212;BME280;66206;0.000;0.000;2023-04-08T11:55:11;98320.68;;;23.17;25.79
77212;BME280;66206;0.000;0.000;2023-04-08T11:57:38;98314.47;;;23.26;25.67
77212;BME280;66206;0.000;0.000;2023-04-08T12:00:05;98313.53;;;23.63;25.38
77212;BME280;66206;0.000;0.000;2023-04-08T12:02:32;98313.31;;;23.75;25.24
77212;BME280;66206;0.000;0.000;2023-04-08T12:04:59;98313.40;;;23.91;25.12
77212;BME280;66206;0.000;0.000;2023-04-08T12:07:26;98311.40;;;23.94;25.07
77212;BME280;66206;0.000;0.000;2023-04-08T12:09:53;98310.03;;;23.96;25.01
77212;BME280;66206;0.000;0.000;2023-04-08T12:12:19;98306.92;;;24.05;24.96
77212;BME280;66206;0.000;0.000;2023-04-08T12:14:46;98307.22;;;23.71;25.37
77212;BME280;66206;0.000;0.000;2023-04-08T12:17:13;98311.26;;;23.58;25.36
77212;BME280;66206;0.000;0.000;2023-04-08T12:19:39;98308.18;;;24.07;24.89
77212;BME280;66206;0.000;0.000;2023-04-08T12:22:06;98311.20;;;24.14;24.85
77212;BME280;66206;0.000;0.000;2023-04-08T12:24:33;98310.44;;;24.20;24.71
77212;BME280;66206;0.000;0.000;2023-04-08T12:27:00;98310.30;;;24.40;24.65
77212;BME280;66206;0.000;0.000;2023-04-08T12:29:26;98311.28;;;24.42;24.67
77212;BME280;66206;0.000;0.000;2023-04-08T12:31:53;98314.29;;;24.07;24.94
77212;BME280;66206;0.000;0.000;2023-04-08T12:34:20;98312.80;;;23.92;24.93
77212;BME280;66206;0.000;0.000;2023-04-08T12:36:47;98315.26;;;23.97;24.84
77212;BME280;66206;0.000;0.000;2023-04-08T12:39:13;98315.28;;;24.17;24.82
77212;BME280;66206;0.000;0.000;2023-04-08T12:41:40;98316.34;;;24.11;24.74
77212;BME280;66206;0.000;0.000;2023-04-08T12:44:07;98317.27;;;24.06;24.77
77212;BME280;66206;0.000;0.000;2023-04-08T12:46:34;98317.82;;;24.07;24.91
77212;BME280;66206;0.000;0.000;2023-04-08T12:49:00;98325.42;;;23.93;24.82
77212;BME280;66206;0.000;0.000;2023-04-08T12:51:27;98320.96;;;24.20;24.72
77212;BME280;66206;0.000;0.000;2023-04-08T12:53:54;98324.41;;;23.77;25.05
77212;BME280;66206;0.000;0.000;2023-04-08T12:56:21;98316.09;;;24.16;24.75
77212;BME280;66206;0.000;0.000;2023-04-08T12:58:47;98316.05;;;24.44;24.56
77212;BME280;66206;0.000;0.000;2023-04-08T13:01:14;98320.19;;;24.53;24.49
77212;BME280;66206;0.000;0.000;2023-04-08T13:03:41;98322.09;;;24.55;24.53
77212;BME280;66206;0.000;0.000;2023-04-08T13:06:07;98318.61;;;24.50;24.42
77212;BME280;66206;0.000;0.000;2023-04-08T13:08:34;98322.94;;;24.57;24.44